Brookhurst Center, California
Current Conditions -  °F | °C
As of 9:53 AM on Monday 24 Nov 2014 (Local Time) from KFUL Reporting Station
Clear Clear  
Wind Chill: 73°   Ceiling: Unl
Heat Index: 73°   Visibility: 10mi
Dew Point: 24°   Wind: 5mph
Humidity: 16%   Direction: 240°WSW
Pressure: 30.22"   Gusts: NA
Location:  33.8191°N, 117.974°W
Report Text: KFUL 241753Z 24004KT 10SM CLR 23/M04 A3022 RMK AO2 SLP233 T02281044 10228 20083 51020
Loading
Personal Weather Stations






























Interactive Weather Map New forecast layout! Learn more

10-Day Weather Forecast

Advertisements
Track Severe Weather on mobile